KTDZ/TDZ METAR and TAF weather

Enter ICAO airport designator
Station Type Date Time Source
KTDZ METAR 2023/02/05 23:53 UTC NOAA

KTDZ 052353Z AUTO 24006KT 10SM BKN041 05/01 A2993 RMK AO2 SLP138 T00500011 10067 20050 53019


Station Type Date Time Source
KTDZ Decoded METAR 2023/02/05 23:53 UTC NOAA

TOLEDO METCALF FIELD, OH, United States (KTDZ) 41-34N 83-29W 189M
Feb 05, 2023 - 06:53 PM EST / 2023.02.05 2353 UTC
Wind: from the WSW (240 degrees) at 7 MPH (6 KT):0
Visibility: 10 mile(s):0
Sky conditions: mostly cloudy
Temperature: 41.0 F (5.0 C)
Dew Point: 34.0 F (1.1 C)
Relative Humidity: 75%
Pressure (altimeter): 29.93 in. Hg (1013 hPa)
Pressure tendency: 0.06 inches (1.9 hPa) higher than three hours ago
ob: KTDZ 052353Z AUTO 24006KT 10SM BKN041 05/01 A2993 RMK AO2 SLP138 T00500011 10067 20050 53019
cycle: 0

Station Type Date Time Source
KTDZ TAF UTC NOAA

Error!

Example: see airport list